sensor_id;sensor_type;location;lat;lon;timestamp;P1;durP1;ratioP1;P2;durP2;ratioP2
82230;SDS011;71832;45.138;9.816;2023-12-20T00:01:47;30.00;;;16.17;;
82230;SDS011;71832;45.138;9.816;2023-12-20T00:04:15;28.50;;;14.65;;
82230;SDS011;71832;45.138;9.816;2023-12-20T00:06:42;24.90;;;15.00;;
82230;SDS011;71832;45.138;9.816;2023-12-20T00:09:10;28.73;;;16.42;;
82230;SDS011;71832;45.138;9.816;2023-12-20T00:11:38;28.10;;;16.55;;
82230;SDS011;71832;45.138;9.816;2023-12-20T00:14:08;25.52;;;15.95;;
82230;SDS011;71832;45.138;9.816;2023-12-20T00:16:36;25.23;;;14.90;;
82230;SDS011;71832;45.138;9.816;2023-12-20T00:19:04;20.85;;;13.77;;
82230;SDS011;71832;45.138;9.816;2023-12-20T00:21:33;24.98;;;14.73;;
82230;SDS011;71832;45.138;9.816;2023-12-20T00:24:02;23.27;;;14.27;;
82230;SDS011;71832;45.138;9.816;2023-12-20T00:26:31;27.98;;;14.43;;
82230;SDS011;71832;45.138;9.816;2023-12-20T00:29:00;22.52;;;13.60;;
82230;SDS011;71832;45.138;9.816;2023-12-20T00:31:29;24.95;;;13.15;;
82230;SDS011;71832;45.138;9.816;2023-12-20T00:33:57;23.15;;;13.63;;
82230;SDS011;71832;45.138;9.816;2023-12-20T00:36:27;24.65;;;14.07;;
82230;SDS011;71832;45.138;9.816;2023-12-20T00:38:55;30.92;;;15.35;;
82230;SDS011;71832;45.138;9.816;2023-12-20T00:41:24;26.40;;;15.20;;
82230;SDS011;71832;45.138;9.816;2023-12-20T00:43:52;32.38;;;16.50;;
82230;SDS011;71832;45.138;9.816;2023-12-20T00:46:21;26.90;;;14.75;;
82230;SDS011;71832;45.138;9.816;2023-12-20T00:48:50;27.48;;;14.98;;
82230;SDS011;71832;45.138;9.816;2023-12-20T00:51:18;25.98;;;14.90;;
82230;SDS011;71832;45.138;9.816;2023-12-20T00:53:49;33.90;;;16.50;;
82230;SDS011;71832;45.138;9.816;2023-12-20T00:56:20;31.05;;;16.15;;
82230;SDS011;71832;45.138;9.816;2023-12-20T00:58:48;32.10;;;15.98;;
82230;SDS011;71832;45.138;9.816;2023-12-20T01:01:17;29.38;;;15.98;;
82230;SDS011;71832;45.138;9.816;2023-12-20T01:03:46;32.47;;;15.35;;
82230;SDS011;71832;45.138;9.816;2023-12-20T01:06:17;28.85;;;14.63;;
82230;SDS011;71832;45.138;9.816;2023-12-20T01:08:45;23.60;;;13.95;;
82230;SDS011;71832;45.138;9.816;2023-12-20T01:11:14;22.25;;;13.63;;
82230;SDS011;71832;45.138;9.816;2023-12-20T01:13:41;26.83;;;14.90;;
82230;SDS011;71832;45.138;9.816;2023-12-20T01:16:11;27.33;;;15.27;;
82230;SDS011;71832;45.138;9.816;2023-12-20T01:18:39;29.52;;;15.00;;
82230;SDS011;71832;45.138;9.816;2023-12-20T01:21:08;28.08;;;14.88;;
82230;SDS011;71832;45.138;9.816;2023-12-20T01:23:37;27.67;;;14.82;;
82230;SDS011;71832;45.138;9.816;2023-12-20T01:26:05;27.55;;;15.25;;
82230;SDS011;71832;45.138;9.816;2023-12-20T01:28:34;26.02;;;15.07;;
82230;SDS011;71832;45.138;9.816;2023-12-20T01:31:01;24.00;;;13.60;;
82230;SDS011;71832;45.138;9.816;2023-12-20T01:33:29;30.58;;;15.45;;
82230;SDS011;71832;45.138;9.816;2023-12-20T01:35:56;30.45;;;15.60;;
82230;SDS011;71832;45.138;9.816;2023-12-20T01:38:24;26.25;;;14.38;;
82230;SDS011;71832;45.138;9.816;2023-12-20T01:40:52;27.08;;;14.43;;
82230;SDS011;71832;45.138;9.816;2023-12-20T01:43:20;27.40;;;14.82;;
82230;SDS011;71832;45.138;9.816;2023-12-20T01:45:48;26.27;;;15.27;;
82230;SDS011;71832;45.138;9.816;2023-12-20T01:48:16;24.00;;;15.13;;
82230;SDS011;71832;45.138;9.816;2023-12-20T01:50:46;28.77;;;14.43;;
82230;SDS011;71832;45.138;9.816;2023-12-20T01:53:15;26.48;;;15.05;;
82230;SDS011;71832;45.138;9.816;2023-12-20T01:55:44;28.60;;;14.32;;
82230;SDS011;71832;45.138;9.816;2023-12-20T01:58:14;26.35;;;13.57;;
82230;SDS011;71832;45.138;9.816;2023-12-20T02:00:44;24.42;;;13.60;;
82230;SDS011;71832;45.138;9.816;2023-12-20T02:03:13;28.35;;;14.20;;
82230;SDS011;71832;45.138;9.816;2023-12-20T02:05:42;24.60;;;14.00;;
82230;SDS011;71832;45.138;9.816;2023-12-20T02:08:11;28.55;;;14.27;;
82230;SDS011;71832;45.138;9.816;2023-12-20T02:10:40;26.67;;;14.23;;
82230;SDS011;71832;45.138;9.816;2023-12-20T02:13:09;30.90;;;14.77;;
82230;SDS011;71832;45.138;9.816;2023-12-20T02:15:37;25.67;;;13.65;;
82230;SDS011;71832;45.138;9.816;2023-12-20T02:18:08;26.10;;;13.48;;
82230;SDS011;71832;45.138;9.816;2023-12-20T02:20:36;24.85;;;13.98;;
82230;SDS011;71832;45.138;9.816;2023-12-20T02:23:04;23.80;;;12.85;;
82230;SDS011;71832;45.138;9.816;2023-12-20T02:25:33;28.45;;;14.13;;
82230;SDS011;71832;45.138;9.816;2023-12-20T02:28:01;26.40;;;13.88;;
82230;SDS011;71832;45.138;9.816;2023-12-20T02:30:30;23.13;;;13.38;;
82230;SDS011;71832;45.138;9.816;2023-12-20T02:33:00;24.45;;;13.15;;
82230;SDS011;71832;45.138;9.816;2023-12-20T02:48:59;28.75;;;13.27;;
82230;SDS011;71832;45.138;9.816;2023-12-20T02:51:28;26.30;;;12.80;;
82230;SDS011;71832;45.138;9.816;2023-12-20T02:53:56;25.10;;;13.50;;
82230;SDS011;71832;45.138;9.816;2023-12-20T02:56:25;26.75;;;13.52;;
82230;SDS011;71832;45.138;9.816;2023-12-20T02:58:55;22.67;;;12.65;;
82230;SDS011;71832;45.138;9.816;2023-12-20T03:01:23;24.90;;;12.57;;
82230;SDS011;71832;45.138;9.816;2023-12-20T03:03:52;23.33;;;13.55;;
82230;SDS011;71832;45.138;9.816;2023-12-20T03:06:21;22.50;;;12.32;;
82230;SDS011;71832;45.138;9.816;2023-12-20T03:08:49;23.38;;;13.32;;
82230;SDS011;71832;45.138;9.816;2023-12-20T03:11:18;25.17;;;13.25;;
82230;SDS011;71832;45.138;9.816;2023-12-20T03:13:47;26.23;;;13.48;;
82230;SDS011;71832;45.138;9.816;2023-12-20T03:16:15;23.00;;;11.63;;
82230;SDS011;71832;45.138;9.816;2023-12-20T03:18:47;24.05;;;12.18;;
82230;SDS011;71832;45.138;9.816;2023-12-20T03:21:15;24.42;;;12.35;;
82230;SDS011;71832;45.138;9.816;2023-12-20T03:23:44;20.10;;;11.60;;
82230;SDS011;71832;45.138;9.816;2023-12-20T03:26:13;24.45;;;12.52;;
82230;SDS011;71832;45.138;9.816;2023-12-20T03:28:43;24.33;;;12.52;;
82230;SDS011;71832;45.138;9.816;2023-12-20T03:31:11;25.27;;;12.68;;
82230;SDS011;71832;45.138;9.816;2023-12-20T03:33:40;24.50;;;13.15;;
82230;SDS011;71832;45.138;9.816;2023-12-20T03:36:09;23.48;;;12.13;;
82230;SDS011;71832;45.138;9.816;2023-12-20T03:38:37;25.92;;;12.68;;
82230;SDS011;71832;45.138;9.816;2023-12-20T03:41:06;20.92;;;11.68;;
82230;SDS011;71832;45.138;9.816;2023-12-20T03:43:35;20.73;;;12.85;;
82230;SDS011;71832;45.138;9.816;2023-12-20T03:46:04;20.38;;;11.55;;
82230;SDS011;71832;45.138;9.816;2023-12-20T03:48:34;24.20;;;11.80;;
82230;SDS011;71832;45.138;9.816;2023-12-20T03:51:03;26.92;;;13.10;;
82230;SDS011;71832;45.138;9.816;2023-12-20T03:53:31;21.65;;;11.68;;
82230;SDS011;71832;45.138;9.816;2023-12-20T03:56:00;22.85;;;12.15;;
82230;SDS011;71832;45.138;9.816;2023-12-20T03:58:28;18.83;;;12.18;;
82230;SDS011;71832;45.138;9.816;2023-12-20T04:00:56;22.00;;;12.30;;
82230;SDS011;71832;45.138;9.816;2023-12-20T04:03:25;27.27;;;12.95;;
82230;SDS011;71832;45.138;9.816;2023-12-20T04:05:54;22.95;;;12.57;;
82230;SDS011;71832;45.138;9.816;2023-12-20T04:08:23;22.65;;;12.10;;
82230;SDS011;71832;45.138;9.816;2023-12-20T04:10:51;23.83;;;12.10;;
82230;SDS011;71832;45.138;9.816;2023-12-20T04:13:20;20.60;;;11.77;;
82230;SDS011;71832;45.138;9.816;2023-12-20T04:15:47;23.50;;;12.27;;
82230;SDS011;71832;45.138;9.816;2023-12-20T04:18:17;25.20;;;13.13;;
82230;SDS011;71832;45.138;9.816;2023-12-20T04:20:46;25.15;;;13.57;;
82230;SDS011;71832;45.138;9.816;2023-12-20T04:23:15;25.00;;;13.13;;
82230;SDS011;71832;45.138;9.816;2023-12-20T04:25:44;23.38;;;12.45;;
82230;SDS011;71832;45.138;9.816;2023-12-20T04:28:12;23.60;;;11.65;;
82230;SDS011;71832;45.138;9.816;2023-12-20T04:30:42;22.45;;;11.45;;
82230;SDS011;71832;45.138;9.816;2023-12-20T04:33:10;29.35;;;12.77;;
82230;SDS011;71832;45.138;9.816;2023-12-20T04:35:39;23.70;;;12.18;;
82230;SDS011;71832;45.138;9.816;2023-12-20T04:38:08;24.55;;;12.75;;
82230;SDS011;71832;45.138;9.816;2023-12-20T04:40:37;24.02;;;12.63;;
82230;SDS011;71832;45.138;9.816;2023-12-20T04:43:07;21.55;;;12.48;;
82230;SDS011;71832;45.138;9.816;2023-12-20T04:45:35;25.10;;;12.77;;
82230;SDS011;71832;45.138;9.816;2023-12-20T04:48:04;25.98;;;12.35;;
82230;SDS011;71832;45.138;9.816;2023-12-20T04:50:33;20.30;;;12.30;;
82230;SDS011;71832;45.138;9.816;2023-12-20T04:53:02;24.98;;;12.10;;
82230;SDS011;71832;45.138;9.816;2023-12-20T04:55:31;22.15;;;11.77;;
82230;SDS011;71832;45.138;9.816;2023-12-20T04:57:59;20.73;;;11.48;;
82230;SDS011;71832;45.138;9.816;2023-12-20T05:00:28;19.27;;;11.20;;
82230;SDS011;71832;45.138;9.816;2023-12-20T05:02:57;22.73;;;11.85;;
82230;SDS011;71832;45.138;9.816;2023-12-20T05:05:25;24.08;;;12.10;;
82230;SDS011;71832;45.138;9.816;2023-12-20T05:07:53;25.08;;;12.30;;
82230;SDS011;71832;45.138;9.816;2023-12-20T05:10:21;22.02;;;11.80;;
82230;SDS011;71832;45.138;9.816;2023-12-20T05:12:50;21.33;;;10.70;;
82230;SDS011;71832;45.138;9.816;2023-12-20T05:15:19;19.98;;;12.02;;
82230;SDS011;71832;45.138;9.816;2023-12-20T05:17:47;21.65;;;12.25;;
82230;SDS011;71832;45.138;9.816;2023-12-20T05:20:16;20.42;;;11.68;;
82230;SDS011;71832;45.138;9.816;2023-12-20T05:22:45;20.55;;;11.25;;
82230;SDS011;71832;45.138;9.816;2023-12-20T05:25:14;21.48;;;12.13;;
82230;SDS011;71832;45.138;9.816;2023-12-20T05:27:42;21.27;;;11.43;;
82230;SDS011;71832;45.138;9.816;2023-12-20T05:30:11;24.75;;;12.00;;
82230;SDS011;71832;45.138;9.816;2023-12-20T05:32:47;20.08;;;11.43;;
82230;SDS011;71832;45.138;9.816;2023-12-20T05:35:15;21.70;;;13.07;;
82230;SDS011;71832;45.138;9.816;2023-12-20T05:37:45;21.40;;;12.20;;
82230;SDS011;71832;45.138;9.816;2023-12-20T05:40:13;24.63;;;12.20;;
82230;SDS011;71832;45.138;9.816;2023-12-20T05:42:41;21.98;;;12.02;;
82230;SDS011;71832;45.138;9.816;2023-12-20T05:45:09;20.92;;;11.55;;
82230;SDS011;71832;45.138;9.816;2023-12-20T05:47:37;23.35;;;11.90;;
82230;SDS011;71832;45.138;9.816;2023-12-20T05:50:05;24.83;;;12.10;;
82230;SDS011;71832;45.138;9.816;2023-12-20T05:52:33;26.20;;;11.90;;
82230;SDS011;71832;45.138;9.816;2023-12-20T05:55:01;20.90;;;12.18;;
82230;SDS011;71832;45.138;9.816;2023-12-20T05:57:29;22.45;;;12.27;;
82230;SDS011;71832;45.138;9.816;2023-12-20T05:59:57;22.80;;;12.18;;
82230;SDS011;71832;45.138;9.816;2023-12-20T06:02:26;22.35;;;12.65;;
82230;SDS011;71832;45.138;9.816;2023-12-20T06:04:55;24.45;;;11.93;;
82230;SDS011;71832;45.138;9.816;2023-12-20T06:07:23;24.67;;;12.45;;
82230;SDS011;71832;45.138;9.816;2023-12-20T06:09:50;24.88;;;12.43;;
82230;SDS011;71832;45.138;9.816;2023-12-20T06:12:18;20.30;;;11.77;;
82230;SDS011;71832;45.138;9.816;2023-12-20T06:14:45;23.45;;;11.75;;
82230;SDS011;71832;45.138;9.816;2023-12-20T06:17:13;20.42;;;11.30;;
82230;SDS011;71832;45.138;9.816;2023-12-20T06:19:40;21.17;;;12.27;;
82230;SDS011;71832;45.138;9.816;2023-12-20T06:22:10;19.70;;;10.90;;
82230;SDS011;71832;45.138;9.816;2023-12-20T06:24:39;22.20;;;12.02;;
82230;SDS011;71832;45.138;9.816;2023-12-20T06:27:06;23.02;;;10.55;;
82230;SDS011;71832;45.138;9.816;2023-12-20T06:29:34;22.02;;;12.45;;
82230;SDS011;71832;45.138;9.816;2023-12-20T06:32:01;19.67;;;12.23;;
82230;SDS011;71832;45.138;9.816;2023-12-20T06:34:29;19.60;;;10.73;;
82230;SDS011;71832;45.138;9.816;2023-12-20T06:36:56;21.50;;;11.77;;
82230;SDS011;71832;45.138;9.816;2023-12-20T06:39:24;23.17;;;11.63;;
82230;SDS011;71832;45.138;9.816;2023-12-20T06:41:52;20.27;;;11.55;;
82230;SDS011;71832;45.138;9.816;2023-12-20T06:44:19;19.70;;;10.90;;
82230;SDS011;71832;45.138;9.816;2023-12-20T06:46:47;20.67;;;11.57;;
82230;SDS011;71832;45.138;9.816;2023-12-20T06:49:15;19.63;;;11.57;;
82230;SDS011;71832;45.138;9.816;2023-12-20T06:51:44;23.80;;;12.77;;
82230;SDS011;71832;45.138;9.816;2023-12-20T06:54:12;25.10;;;12.93;;
82230;SDS011;71832;45.138;9.816;2023-12-20T06:56:41;24.27;;;15.40;;
82230;SDS011;71832;45.138;9.816;2023-12-20T06:59:10;26.38;;;14.45;;
82230;SDS011;71832;45.138;9.816;2023-12-20T07:01:38;26.73;;;13.95;;
82230;SDS011;71832;45.138;9.816;2023-12-20T07:04:06;22.15;;;12.15;;
82230;SDS011;71832;45.138;9.816;2023-12-20T07:06:34;22.90;;;12.23;;
82230;SDS011;71832;45.138;9.816;2023-12-20T07:09:03;20.60;;;11.90;;
82230;SDS011;71832;45.138;9.816;2023-12-20T07:11:32;22.55;;;11.77;;
82230;SDS011;71832;45.138;9.816;2023-12-20T07:14:00;20.27;;;10.98;;
82230;SDS011;71832;45.138;9.816;2023-12-20T07:16:28;22.30;;;12.02;;
82230;SDS011;71832;45.138;9.816;2023-12-20T07:18:56;21.15;;;12.23;;
82230;SDS011;71832;45.138;9.816;2023-12-20T07:21:23;28.83;;;13.73;;
82230;SDS011;71832;45.138;9.816;2023-12-20T07:23:52;25.85;;;13.38;;
82230;SDS011;71832;45.138;9.816;2023-12-20T07:26:20;23.30;;;12.57;;
82230;SDS011;71832;45.138;9.816;2023-12-20T07:28:49;20.80;;;11.82;;
82230;SDS011;71832;45.138;9.816;2023-12-20T07:31:17;24.70;;;12.98;;
82230;SDS011;71832;45.138;9.816;2023-12-20T07:33:45;26.50;;;13.13;;
82230;SDS011;71832;45.138;9.816;2023-12-20T07:36:13;24.55;;;13.38;;
82230;SDS011;71832;45.138;9.816;2023-12-20T07:38:40;24.25;;;12.23;;
82230;SDS011;71832;45.138;9.816;2023-12-20T07:41:10;26.27;;;12.70;;
82230;SDS011;71832;45.138;9.816;2023-12-20T07:43:37;25.73;;;13.35;;
82230;SDS011;71832;45.138;9.816;2023-12-20T07:46:06;23.48;;;13.70;;
82230;SDS011;71832;45.138;9.816;2023-12-20T07:48:35;27.80;;;14.10;;
82230;SDS011;71832;45.138;9.816;2023-12-20T07:51:04;25.83;;;14.40;;
82230;SDS011;71832;45.138;9.816;2023-12-20T07:53:33;28.45;;;14.20;;
82230;SDS011;71832;45.138;9.816;2023-12-20T07:56:01;26.88;;;14.00;;
82230;SDS011;71832;45.138;9.816;2023-12-20T08:01:07;26.85;;;12.57;;
82230;SDS011;71832;45.138;9.816;2023-12-20T08:03:36;24.17;;;12.48;;
82230;SDS011;71832;45.138;9.816;2023-12-20T08:06:05;20.67;;;12.05;;
82230;SDS011;71832;45.138;9.816;2023-12-20T08:08:33;22.08;;;11.82;;
82230;SDS011;71832;45.138;9.816;2023-12-20T08:11:01;23.98;;;12.23;;
82230;SDS011;71832;45.138;9.816;2023-12-20T08:13:30;23.65;;;12.45;;
82230;SDS011;71832;45.138;9.816;2023-12-20T08:15:59;25.50;;;13.60;;
82230;SDS011;71832;45.138;9.816;2023-12-20T08:18:29;25.58;;;13.75;;
82230;SDS011;71832;45.138;9.816;2023-12-20T08:20:57;35.42;;;15.23;;
82230;SDS011;71832;45.138;9.816;2023-12-20T08:23:26;28.50;;;15.60;;
82230;SDS011;71832;45.138;9.816;2023-12-20T08:25:54;33.53;;;17.17;;
82230;SDS011;71832;45.138;9.816;2023-12-20T08:28:23;32.28;;;15.27;;
82230;SDS011;71832;45.138;9.816;2023-12-20T08:30:51;30.80;;;16.73;;
82230;SDS011;71832;45.138;9.816;2023-12-20T08:33:20;32.00;;;16.27;;
82230;SDS011;71832;45.138;9.816;2023-12-20T08:35:49;35.55;;;17.02;;
82230;SDS011;71832;45.138;9.816;2023-12-20T08:38:18;27.02;;;15.07;;
82230;SDS011;71832;45.138;9.816;2023-12-20T08:40:46;27.10;;;14.75;;
82230;SDS011;71832;45.138;9.816;2023-12-20T08:43:14;31.08;;;15.90;;
82230;SDS011;71832;45.138;9.816;2023-12-20T08:45:43;30.25;;;16.13;;
82230;SDS011;71832;45.138;9.816;2023-12-20T08:48:11;33.58;;;16.92;;
82230;SDS011;71832;45.138;9.816;2023-12-20T08:50:40;37.10;;;18.08;;
82230;SDS011;71832;45.138;9.816;2023-12-20T08:53:08;31.20;;;16.67;;
82230;SDS011;71832;45.138;9.816;2023-12-20T08:55:37;27.88;;;15.75;;
82230;SDS011;71832;45.138;9.816;2023-12-20T08:58:04;29.25;;;15.38;;
82230;SDS011;71832;45.138;9.816;2023-12-20T09:00:32;30.40;;;16.73;;
82230;SDS011;71832;45.138;9.816;2023-12-20T09:03:01;31.67;;;15.88;;
82230;SDS011;71832;45.138;9.816;2023-12-20T09:05:29;27.50;;;14.70;;
82230;SDS011;71832;45.138;9.816;2023-12-20T09:07:57;29.25;;;15.88;;
82230;SDS011;71832;45.138;9.816;2023-12-20T09:10:25;26.60;;;15.25;;
82230;SDS011;71832;45.138;9.816;2023-12-20T09:12:53;24.90;;;14.32;;
82230;SDS011;71832;45.138;9.816;2023-12-20T09:15:23;27.73;;;15.02;;
82230;SDS011;71832;45.138;9.816;2023-12-20T09:17:51;26.25;;;14.57;;
82230;SDS011;71832;45.138;9.816;2023-12-20T09:20:19;25.17;;;13.90;;
82230;SDS011;71832;45.138;9.816;2023-12-20T09:22:49;26.55;;;13.52;;
82230;SDS011;71832;45.138;9.816;2023-12-20T09:25:16;26.85;;;14.50;;
82230;SDS011;71832;45.138;9.816;2023-12-20T09:30:16;24.40;;;12.68;;
82230;SDS011;71832;45.138;9.816;2023-12-20T09:32:45;24.42;;;12.98;;
82230;SDS011;71832;45.138;9.816;2023-12-20T09:35:13;30.63;;;12.60;;
82230;SDS011;71832;45.138;9.816;2023-12-20T09:37:40;21.08;;;12.65;;
82230;SDS011;71832;45.138;9.816;2023-12-20T09:40:10;23.00;;;12.82;;
82230;SDS011;71832;45.138;9.816;2023-12-20T09:42:46;22.20;;;12.35;;
82230;SDS011;71832;45.138;9.816;2023-12-20T09:45:22;23.15;;;13.20;;
82230;SDS011;71832;45.138;9.816;2023-12-20T09:47:51;25.02;;;12.50;;
82230;SDS011;71832;45.138;9.816;2023-12-20T09:50:21;22.70;;;12.88;;
82230;SDS011;71832;45.138;9.816;2023-12-20T09:52:50;21.08;;;11.77;;
82230;SDS011;71832;45.138;9.816;2023-12-20T09:55:19;25.23;;;12.60;;
82230;SDS011;71832;45.138;9.816;2023-12-20T09:57:47;20.38;;;12.50;;
82230;SDS011;71832;45.138;9.816;2023-12-20T10:00:16;20.65;;;11.95;;
82230;SDS011;71832;45.138;9.816;2023-12-20T10:03:02;29.08;;;14.18;;
82230;SDS011;71832;45.138;9.816;2023-12-20T10:05:33;43.53;;;23.75;;
82230;SDS011;71832;45.138;9.816;2023-12-20T10:08:01;32.83;;;18.50;;
82230;SDS011;71832;45.138;9.816;2023-12-20T10:10:30;68.05;;;21.50;;
82230;SDS011;71832;45.138;9.816;2023-12-20T10:15:39;76.07;;;22.58;;
82230;SDS011;71832;45.138;9.816;2023-12-20T10:18:08;102.40;;;28.52;;
82230;SDS011;71832;45.138;9.816;2023-12-20T10:20:36;45.13;;;16.98;;
82230;SDS011;71832;45.138;9.816;2023-12-20T10:23:07;29.40;;;15.25;;
82230;SDS011;71832;45.138;9.816;2023-12-20T10:25:35;24.35;;;13.32;;
82230;SDS011;71832;45.138;9.816;2023-12-20T10:28:24;23.95;;;14.00;;
82230;SDS011;71832;45.138;9.816;2023-12-20T10:30:53;21.52;;;12.80;;
82230;SDS011;71832;45.138;9.816;2023-12-20T10:33:24;24.65;;;13.57;;
82230;SDS011;71832;45.138;9.816;2023-12-20T10:35:54;22.52;;;13.05;;
82230;SDS011;71832;45.138;9.816;2023-12-20T10:38:22;38.15;;;16.00;;
82230;SDS011;71832;45.138;9.816;2023-12-20T10:40:50;43.42;;;18.02;;
82230;SDS011;71832;45.138;9.816;2023-12-20T10:43:20;30.35;;;15.80;;
82230;SDS011;71832;45.138;9.816;2023-12-20T10:45:49;33.30;;;17.13;;
82230;SDS011;71832;45.138;9.816;2023-12-20T10:48:18;32.15;;;16.25;;
82230;SDS011;71832;45.138;9.816;2023-12-20T10:50:46;29.05;;;15.32;;
82230;SDS011;71832;45.138;9.816;2023-12-20T10:53:15;43.10;;;18.83;;
82230;SDS011;71832;45.138;9.816;2023-12-20T10:55:43;37.08;;;17.60;;
82230;SDS011;71832;45.138;9.816;2023-12-20T10:58:12;34.08;;;17.20;;
82230;SDS011;71832;45.138;9.816;2023-12-20T11:00:40;30.90;;;15.90;;
82230;SDS011;71832;45.138;9.816;2023-12-20T11:03:11;29.75;;;16.65;;
82230;SDS011;71832;45.138;9.816;2023-12-20T11:05:44;26.45;;;15.13;;
82230;SDS011;71832;45.138;9.816;2023-12-20T11:08:20;29.60;;;15.52;;
82230;SDS011;71832;45.138;9.816;2023-12-20T11:11:02;25.55;;;15.43;;
82230;SDS011;71832;45.138;9.816;2023-12-20T11:13:43;31.85;;;15.93;;
82230;SDS011;71832;45.138;9.816;2023-12-20T11:16:32;29.85;;;15.73;;
82230;SDS011;71832;45.138;9.816;2023-12-20T11:19:05;27.48;;;15.15;;
82230;SDS011;71832;45.138;9.816;2023-12-20T11:21:33;25.98;;;15.13;;
82230;SDS011;71832;45.138;9.816;2023-12-20T11:24:02;27.10;;;14.10;;
82230;SDS011;71832;45.138;9.816;2023-12-20T11:26:32;23.20;;;13.50;;
82230;SDS011;71832;45.138;9.816;2023-12-20T11:29:28;25.15;;;14.23;;
82230;SDS011;71832;45.138;9.816;2023-12-20T11:31:59;29.95;;;13.38;;
82230;SDS011;71832;45.138;9.816;2023-12-20T11:34:32;27.13;;;14.55;;
82230;SDS011;71832;45.138;9.816;2023-12-20T11:37:02;25.05;;;14.43;;
82230;SDS011;71832;45.138;9.816;2023-12-20T11:39:30;23.83;;;14.05;;
82230;SDS011;71832;45.138;9.816;2023-12-20T11:42:04;26.77;;;14.43;;
82230;SDS011;71832;45.138;9.816;2023-12-20T11:44:33;23.77;;;14.50;;
82230;SDS011;71832;45.138;9.816;2023-12-20T11:47:03;24.30;;;14.25;;
82230;SDS011;71832;45.138;9.816;2023-12-20T11:49:31;26.25;;;14.55;;
82230;SDS011;71832;45.138;9.816;2023-12-20T11:51:59;21.58;;;13.57;;
82230;SDS011;71832;45.138;9.816;2023-12-20T11:54:29;24.02;;;13.13;;
82230;SDS011;71832;45.138;9.816;2023-12-20T11:56:58;24.95;;;13.82;;
82230;SDS011;71832;45.138;9.816;2023-12-20T11:59:27;21.23;;;13.15;;
82230;SDS011;71832;45.138;9.816;2023-12-20T12:01:55;25.70;;;14.82;;
82230;SDS011;71832;45.138;9.816;2023-12-20T12:04:26;25.50;;;14.57;;
82230;SDS011;71832;45.138;9.816;2023-12-20T12:06:54;28.02;;;15.90;;
82230;SDS011;71832;45.138;9.816;2023-12-20T12:09:21;28.48;;;15.50;;
82230;SDS011;71832;45.138;9.816;2023-12-20T12:11:49;28.25;;;17.05;;
82230;SDS011;71832;45.138;9.816;2023-12-20T12:14:16;27.63;;;16.33;;
82230;SDS011;71832;45.138;9.816;2023-12-20T12:16:44;26.65;;;15.13;;
82230;SDS011;71832;45.138;9.816;2023-12-20T12:19:22;24.00;;;13.55;;
82230;SDS011;71832;45.138;9.816;2023-12-20T12:21:50;25.88;;;14.43;;
82230;SDS011;71832;45.138;9.816;2023-12-20T12:24:39;23.48;;;13.65;;
82230;SDS011;71832;45.138;9.816;2023-12-20T12:27:09;27.67;;;14.75;;
82230;SDS011;71832;45.138;9.816;2023-12-20T12:29:39;27.20;;;16.02;;
82230;SDS011;71832;45.138;9.816;2023-12-20T12:32:07;28.58;;;16.48;;
82230;SDS011;71832;45.138;9.816;2023-12-20T12:34:35;27.50;;;16.83;;
82230;SDS011;71832;45.138;9.816;2023-12-20T12:37:03;30.48;;;17.33;;
82230;SDS011;71832;45.138;9.816;2023-12-20T12:39:31;26.35;;;14.30;;
82230;SDS011;71832;45.138;9.816;2023-12-20T12:41:58;23.58;;;14.40;;
82230;SDS011;71832;45.138;9.816;2023-12-20T12:44:26;27.15;;;14.85;;
82230;SDS011;71832;45.138;9.816;2023-12-20T12:46:53;23.48;;;13.48;;
82230;SDS011;71832;45.138;9.816;2023-12-20T12:49:22;24.08;;;14.52;;
82230;SDS011;71832;45.138;9.816;2023-12-20T12:51:49;29.00;;;15.05;;
82230;SDS011;71832;45.138;9.816;2023-12-20T12:54:17;26.02;;;15.10;;
82230;SDS011;71832;45.138;9.816;2023-12-20T12:56:44;26.58;;;14.25;;
82230;SDS011;71832;45.138;9.816;2023-12-20T12:59:13;28.85;;;15.20;;
82230;SDS011;71832;45.138;9.816;2023-12-20T13:01:40;30.23;;;15.52;;
82230;SDS011;71832;45.138;9.816;2023-12-20T13:04:08;26.48;;;14.73;;
82230;SDS011;71832;45.138;9.816;2023-12-20T13:06:36;26.45;;;15.23;;
82230;SDS011;71832;45.138;9.816;2023-12-20T13:09:04;28.75;;;15.32;;
82230;SDS011;71832;45.138;9.816;2023-12-20T13:11:32;31.75;;;16.48;;
82230;SDS011;71832;45.138;9.816;2023-12-20T13:14:00;33.42;;;16.00;;
82230;SDS011;71832;45.138;9.816;2023-12-20T13:16:29;31.17;;;17.00;;
82230;SDS011;71832;45.138;9.816;2023-12-20T13:19:00;32.08;;;17.00;;
82230;SDS011;71832;45.138;9.816;2023-12-20T13:21:28;29.85;;;16.05;;
82230;SDS011;71832;45.138;9.816;2023-12-20T13:23:56;25.70;;;15.80;;
82230;SDS011;71832;45.138;9.816;2023-12-20T13:26:24;28.90;;;16.40;;
82230;SDS011;71832;45.138;9.816;2023-12-20T13:28:53;29.13;;;15.77;;
82230;SDS011;71832;45.138;9.816;2023-12-20T13:31:22;27.95;;;16.13;;
82230;SDS011;71832;45.138;9.816;2023-12-20T13:33:50;26.80;;;15.05;;
82230;SDS011;71832;45.138;9.816;2023-12-20T13:36:18;28.50;;;17.73;;
82230;SDS011;71832;45.138;9.816;2023-12-20T13:38:45;28.58;;;16.48;;
82230;SDS011;71832;45.138;9.816;2023-12-20T13:41:13;31.98;;;17.17;;
82230;SDS011;71832;45.138;9.816;2023-12-20T13:43:41;28.08;;;15.98;;
82230;SDS011;71832;45.138;9.816;2023-12-20T13:46:09;30.08;;;15.82;;
82230;SDS011;71832;45.138;9.816;2023-12-20T13:48:37;26.27;;;15.60;;
82230;SDS011;71832;45.138;9.816;2023-12-20T13:51:05;26.73;;;15.55;;
82230;SDS011;71832;45.138;9.816;2023-12-20T13:53:33;27.95;;;16.58;;
82230;SDS011;71832;45.138;9.816;2023-12-20T13:56:01;27.80;;;15.93;;
82230;SDS011;71832;45.138;9.816;2023-12-20T13:58:30;26.88;;;16.52;;
82230;SDS011;71832;45.138;9.816;2023-12-20T14:00:58;30.05;;;17.33;;
82230;SDS011;71832;45.138;9.816;2023-12-20T14:03:27;31.70;;;17.20;;
82230;SDS011;71832;45.138;9.816;2023-12-20T14:05:56;31.90;;;18.48;;
82230;SDS011;71832;45.138;9.816;2023-12-20T14:08:24;35.95;;;18.58;;
82230;SDS011;71832;45.138;9.816;2023-12-20T14:10:52;33.13;;;18.33;;
82230;SDS011;71832;45.138;9.816;2023-12-20T14:13:20;30.30;;;17.75;;
82230;SDS011;71832;45.138;9.816;2023-12-20T14:15:47;30.77;;;17.85;;
82230;SDS011;71832;45.138;9.816;2023-12-20T14:18:15;30.13;;;17.77;;
82230;SDS011;71832;45.138;9.816;2023-12-20T14:20:44;28.55;;;16.92;;
82230;SDS011;71832;45.138;9.816;2023-12-20T14:23:13;36.60;;;17.85;;
82230;SDS011;71832;45.138;9.816;2023-12-20T14:25:42;32.88;;;17.98;;
82230;SDS011;71832;45.138;9.816;2023-12-20T14:28:10;32.38;;;17.20;;
82230;SDS011;71832;45.138;9.816;2023-12-20T14:30:40;29.75;;;17.15;;
82230;SDS011;71832;45.138;9.816;2023-12-20T14:33:08;29.35;;;17.15;;
82230;SDS011;71832;45.138;9.816;2023-12-20T14:35:36;31.80;;;17.38;;
82230;SDS011;71832;45.138;9.816;2023-12-20T14:38:04;31.15;;;17.27;;
82230;SDS011;71832;45.138;9.816;2023-12-20T14:40:32;30.75;;;17.58;;
82230;SDS011;71832;45.138;9.816;2023-12-20T14:42:59;30.80;;;16.63;;
82230;SDS011;71832;45.138;9.816;2023-12-20T14:45:30;30.95;;;17.23;;
82230;SDS011;71832;45.138;9.816;2023-12-20T14:47:58;31.40;;;17.70;;
82230;SDS011;71832;45.138;9.816;2023-12-20T14:50:26;32.08;;;18.17;;
82230;SDS011;71832;45.138;9.816;2023-12-20T14:52:54;36.08;;;18.40;;